Time;durP1;ratioP1;P1;durP2;ratioP2;P2;SDS_P1;SDS_P2;PMS_P1;PMS_P2;Temp;Humidity;BMP_temperature;BMP_pressure;BME280_temperature;BME280_humidity;BME280_pressure;Samples;Min_cycle;Max_cycle;Signal;HPM_P1;HPM_P2
2022/10/27 00:00:05;;;;;;;9.80;6.07;;;13.00;99.90;;;;;;5073508;28;20108;-50
2022/10/27 00:02:30;;;;;;;8.90;6.00;;;12.90;99.90;;;;;;5073073;28;20112;-50
2022/10/27 00:04:56;;;;;;;7.97;5.53;;;13.00;99.90;;;;;;5071804;28;20463;-49
2022/10/27 00:07:21;;;;;;;5.97;5.00;;;12.90;99.90;;;;;;5071780;28;20492;-53
2022/10/27 00:09:47;;;;;;;9.10;5.40;;;12.90;99.90;;;;;;5071919;28;20075;-56
2022/10/27 00:12:12;;;;;;;10.57;6.50;;;12.90;99.90;;;;;;5071688;28;20191;-53
2022/10/27 00:14:39;;;;;;;9.43;5.82;;;12.80;99.90;;;;;;5073072;28;20025;-50
2022/10/27 00:17:04;;;;;;;6.95;5.38;;;12.80;99.90;;;;;;5073153;28;20037;-53
2022/10/27 00:19:30;;;;;;;9.82;6.10;;;12.80;99.90;;;;;;5073055;28;20031;-55
2022/10/27 00:21:55;;;;;;;11.48;7.38;;;12.70;99.90;;;;;;5071226;28;20484;-53
2022/10/27 00:24:21;;;;;;;18.02;7.68;;;12.80;99.90;;;;;;5035563;28;1037343;-51
2022/10/27 00:26:46;;;;;;;15.90;8.30;;;12.90;99.90;;;;;;5074106;28;20107;-53
2022/10/27 00:29:12;;;;;;;29.38;19.90;;;13.00;99.90;;;;;;5074038;28;20021;-54
2022/10/27 00:31:38;;;;;;;17.20;10.30;;;13.00;99.90;;;;;;5073903;28;20108;-51
2022/10/27 00:34:03;;;;;;;17.40;7.15;;;13.00;99.90;;;;;;5073565;28;20048;-54
2022/10/27 00:36:29;;;;;;;18.23;6.50;;;12.90;99.90;;;;;;5073758;28;20029;-55
2022/10/27 00:38:57;;;;;;;10.57;7.32;;;12.80;99.90;;;;;;5072568;28;20028;-52
2022/10/27 00:41:28;;;;;;;32.35;7.93;;;12.70;99.90;;;;;;5072440;28;20503;-52
2022/10/27 00:43:54;;;;;;;26.63;6.90;;;12.70;99.90;;;;;;5073379;28;20024;-51
2022/10/27 00:46:20;;;;;;;23.55;8.27;;;12.70;99.90;;;;;;5072204;28;20044;-50
2022/10/27 00:48:48;;;;;;;155.38;10.13;;;12.70;99.90;;;;;;5073527;28;20430;-53
2022/10/27 00:51:16;;;;;;;38.47;9.82;;;12.90;99.90;;;;;;5073385;28;20124;-54
2022/10/27 00:53:42;;;;;;;21.83;10.73;;;13.00;99.90;;;;;;5071868;28;20020;-52
2022/10/27 00:56:08;;;;;;;55.20;12.20;;;13.10;99.90;;;;;;5073606;28;20020;-51
2022/10/27 00:58:34;;;;;;;23.40;9.00;;;13.00;99.90;;;;;;5073555;28;20395;-50
2022/10/27 01:01:00;;;;;;;17.95;8.02;;;12.90;99.90;;;;;;5073296;28;20036;-52
2022/10/27 01:03:26;;;;;;;11.30;8.07;;;12.70;99.90;;;;;;5073121;28;20025;-53
2022/10/27 01:05:54;;;;;;;11.57;7.80;;;12.50;99.90;;;;;;5073538;28;20107;-55
2022/10/27 01:08:22;;;;;;;13.98;8.75;;;12.40;99.90;;;;;;5071947;28;20078;-50
2022/10/27 01:10:48;;;;;;;15.25;8.40;;;12.30;99.90;;;;;;5073258;28;20032;-55
2022/10/27 01:13:15;;;;;;;19.30;8.15;;;12.20;99.90;;;;;;5072937;28;20048;-56
2022/10/27 01:16:11;;;;;;;15.07;9.00;;;12.20;99.90;;;;;;5072970;28;20037;-56
2022/10/27 01:19:12;;;;;;;15.73;7.88;;;12.20;99.90;;;;;;5072678;28;20045;-56
2022/10/27 01:22:04;;;;;;;11.55;8.00;;;12.20;99.90;;;;;;5073260;28;20126;-52
2022/10/27 01:24:41;;;;;;;11.88;6.57;;;12.20;99.90;;;;;;5071332;28;20123;-56
2022/10/27 01:27:23;;;;;;;9.27;6.75;;;12.20;99.90;;;;;;5072949;28;20091;-52
2022/10/27 01:30:04;;;;;;;7.85;5.60;;;12.20;99.90;;;;;;5072861;28;20499;-53
2022/10/27 01:32:45;;;;;;;8.40;5.32;;;12.10;99.90;;;;;;5072502;28;20456;-56
2022/10/27 01:35:32;;;;;;;11.38;6.20;;;12.00;99.90;;;;;;5072789;28;20024;-53
2022/10/27 01:38:05;;;;;;;10.35;6.72;;;12.10;99.90;;;;;;5072666;28;20024;-55
2022/10/27 01:40:33;;;;;;;14.07;6.80;;;12.10;99.90;;;;;;5072710;28;20036;-51
2022/10/27 01:43:04;;;;;;;8.40;5.63;;;12.10;99.90;;;;;;5072284;28;20027;-52
2022/10/27 01:45:34;;;;;;;10.70;6.53;;;12.00;99.90;;;;;;5072493;28;20029;-58
2022/10/27 01:48:00;;;;;;;9.90;5.68;;;12.10;99.90;;;;;;5072387;28;20403;-51
2022/10/27 01:50:33;;;;;;;11.68;6.10;;;12.00;99.90;;;;;;5072422;28;20060;-56
2022/10/27 01:52:59;;;;;;;17.02;5.85;;;12.00;99.90;;;;;;5072156;28;20434;-53
2022/10/27 01:55:45;;;;;;;13.30;6.05;;;12.10;99.90;;;;;;5070900;28;20037;-54
2022/10/27 01:58:35;;;;;;;11.65;5.93;;;12.10;99.90;;;;;;5070665;28;20025;-52
2022/10/27 02:01:33;;;;;;;13.50;5.50;;;12.10;99.90;;;;;;5072169;28;20104;-56
2022/10/27 02:04:36;;;;;;;9.85;4.82;;;12.10;99.90;;;;;;5071880;28;20024;-52
2022/10/27 02:07:11;;;;;;;6.15;4.68;;;12.00;99.90;;;;;;5072104;28;20113;-52
2022/10/27 02:09:55;;;;;;;13.95;5.30;;;11.90;99.90;;;;;;5071968;28;20400;-53
2022/10/27 02:12:29;;;;;;;10.63;5.50;;;11.90;99.90;;;;;;5071659;28;20020;-55
2022/10/27 02:14:58;;;;;;;11.73;7.27;;;11.90;99.90;;;;;;5072021;28;20047;-56
2022/10/27 02:17:30;;;;;;;10.38;6.05;;;12.00;99.90;;;;;;5071897;28;20063;-55
2022/10/27 02:19:58;;;;;;;14.88;7.88;;;12.00;99.90;;;;;;5071940;28;20055;-52
2022/10/27 02:22:27;;;;;;;10.77;6.15;;;11.90;99.90;;;;;;5071465;28;20123;-57
2022/10/27 02:24:52;;;;;;;11.35;6.90;;;11.90;99.90;;;;;;5071004;28;20496;-52
2022/10/27 02:27:40;;;;;;;9.52;6.88;;;11.90;99.90;;;;;;5071606;28;20029;-55
2022/10/27 02:30:07;;;;;;;19.33;7.40;;;11.90;99.90;;;;;;5070362;28;20031;-52
2022/10/27 02:32:33;;;;;;;17.25;7.32;;;12.00;99.90;;;;;;5070049;28;20426;-52
2022/10/27 02:34:59;;;;;;;7.88;5.05;;;12.10;99.90;;;;;;5070200;28;20021;-56
2022/10/27 02:37:35;;;;;;;15.13;4.57;;;12.30;99.90;;;;;;5071635;28;20055;-55
2022/10/27 02:40:02;;;;;;;10.95;4.18;;;12.30;99.90;;;;;;5071610;28;20030;-53
2022/10/27 02:42:27;;;;;;;9.95;4.43;;;12.30;99.90;;;;;;5071370;28;20453;-56
2022/10/27 02:44:53;;;;;;;15.88;4.53;;;12.20;99.90;;;;;;5070113;28;20032;-55
2022/10/27 02:47:25;;;;;;;13.07;4.15;;;12.10;99.90;;;;;;5070411;28;20460;-55
2022/10/27 02:49:50;;;;;;;10.13;5.35;;;12.00;99.90;;;;;;5070240;28;20021;-52
2022/10/27 02:52:16;;;;;;;11.80;4.60;;;11.90;99.90;;;;;;5070108;28;20027;-51
2022/10/27 02:54:47;;;;;;;11.05;5.72;;;11.80;99.90;;;;;;5071418;28;20471;-55
2022/10/27 02:57:14;;;;;;;7.75;5.13;;;11.70;99.90;;;;;;5071824;28;20480;-55
2022/10/27 02:59:39;;;;;;;6.50;4.30;;;11.60;99.90;;;;;;5071517;28;20460;-58
2022/10/27 03:02:05;;;;;;;12.88;5.38;;;11.60;99.90;;;;;;5071103;28;20059;-50
2022/10/27 03:04:30;;;;;;;16.58;5.63;;;11.60;99.90;;;;;;5071111;28;20044;-53
2022/10/27 03:06:56;;;;;;;14.40;5.47;;;11.60;99.90;;;;;;5071269;28;20036;-51
2022/10/27 03:09:21;;;;;;;23.33;7.70;;;11.50;99.90;;;;;;5073178;28;20097;-53
2022/10/27 03:11:47;;;;;;;11.35;5.85;;;11.50;99.90;;;;;;5075369;28;20100;-50
2022/10/27 03:14:12;;;;;;;11.40;6.53;;;11.50;99.90;;;;;;5073894;28;20017;-55
2022/10/27 03:16:38;;;;;;;16.08;6.75;;;11.40;99.90;;;;;;5075300;28;20480;-59
2022/10/27 03:19:03;;;;;;;16.00;7.32;;;11.40;99.90;;;;;;5075240;28;20028;-54
2022/10/27 03:21:29;;;;;;;15.27;7.00;;;11.40;99.90;;;;;;5074251;28;20032;-55
2022/10/27 03:23:55;;;;;;;11.45;6.90;;;11.40;99.90;;;;;;5093311;22;20610;-52
2022/10/27 03:26:20;;;;;;;15.65;6.75;;;11.30;99.90;;;;;;5055070;28;20413;-50
2022/10/27 03:28:46;;;;;;;8.10;6.28;;;11.30;99.90;;;;;;5053837;28;20025;-49
2022/10/27 03:31:11;;;;;;;14.15;6.75;;;11.30;99.90;;;;;;5053739;28;20021;-52
2022/10/27 03:33:37;;;;;;;10.30;6.05;;;11.20;99.90;;;;;;5055583;28;20025;-49
2022/10/27 03:36:02;;;;;;;9.35;5.30;;;11.30;99.90;;;;;;5074939;28;20446;-53
2022/10/27 03:38:28;;;;;;;10.10;5.30;;;11.30;99.90;;;;;;5074769;28;20036;-53
2022/10/27 03:40:53;;;;;;;9.02;4.93;;;11.30;99.90;;;;;;5074997;28;20032;-57
2022/10/27 03:43:19;;;;;;;13.13;5.47;;;11.30;99.90;;;;;;5074590;28;20101;-51
2022/10/27 03:45:48;;;;;;;8.68;5.72;;;11.30;99.90;;;;;;5074753;28;20025;-50
2022/10/27 03:48:14;;;;;;;8.63;4.95;;;11.20;99.90;;;;;;5074703;28;20031;-54
2022/10/27 03:50:45;;;;;;;9.05;4.90;;;11.20;99.90;;;;;;5073338;28;20020;-49
2022/10/27 03:53:11;;;;;;;6.40;5.43;;;11.20;99.90;;;;;;5074304;28;20021;-54
2022/10/27 03:55:36;;;;;;;7.05;5.10;;;11.20;99.90;;;;;;5073176;28;20399;-53
2022/10/27 03:58:02;;;;;;;7.25;4.90;;;11.10;99.90;;;;;;5074777;28;20028;-49
2022/10/27 04:00:30;;;;;;;10.95;5.72;;;11.00;99.90;;;;;;5074548;28;20043;-49
2022/10/27 04:02:56;;;;;;;26.05;7.65;;;11.00;99.90;;;;;;5074457;28;20020;-54
2022/10/27 04:05:22;;;;;;;12.63;5.60;;;11.00;99.90;;;;;;5074947;28;20033;-54
2022/10/27 04:07:48;;;;;;;7.45;6.20;;;11.00;99.90;;;;;;5074727;28;20468;-50
2022/10/27 04:10:13;;;;;;;8.32;6.30;;;11.00;99.90;;;;;;5073055;28;20031;-53
2022/10/27 04:12:50;;;;;;;9.90;5.80;;;11.00;99.90;;;;;;5074360;28;20027;-53
2022/10/27 04:15:16;;;;;;;10.45;6.32;;;11.00;99.90;;;;;;5074038;28;20059;-51
2022/10/27 04:17:42;;;;;;;13.45;6.50;;;10.90;99.90;;;;;;5073236;28;20116;-52
2022/10/27 04:20:08;;;;;;;11.45;6.60;;;11.00;99.90;;;;;;5074256;28;20067;-55
2022/10/27 04:22:33;;;;;;;12.43;7.00;;;11.00;99.90;;;;;;5074498;28;20028;-54
2022/10/27 04:24:59;;;;;;;11.57;7.30;;;10.90;99.90;;;;;;5073342;28;20036;-54
2022/10/27 04:27:24;;;;;;;14.32;7.40;;;11.00;99.90;;;;;;5072681;28;20499;-50
2022/10/27 04:29:50;;;;;;;10.10;6.82;;;10.90;99.90;;;;;;5072715;28;20017;-52
2022/10/27 04:32:15;;;;;;;8.23;5.82;;;10.80;99.90;;;;;;5073691;28;20031;-48
2022/10/27 04:34:41;;;;;;;14.55;6.68;;;10.80;99.90;;;;;;5073845;28;20044;-50
2022/10/27 04:37:06;;;;;;;8.43;6.75;;;10.70;99.90;;;;;;5072778;28;20411;-53
2022/10/27 04:39:32;;;;;;;9.55;8.00;;;10.70;99.90;;;;;;5073910;28;20024;-49
2022/10/27 04:41:57;;;;;;;15.10;8.20;;;10.70;99.90;;;;;;5073514;28;20468;-49
2022/10/27 04:44:23;;;;;;;24.58;9.10;;;10.60;99.90;;;;;;5073638;28;20041;-54
2022/10/27 04:46:48;;;;;;;12.50;8.40;;;10.70;99.90;;;;;;5073742;28;20028;-49
2022/10/27 04:49:14;;;;;;;47.40;9.02;;;10.70;99.90;;;;;;5073932;28;20056;-51
2022/10/27 04:51:39;;;;;;;49.33;9.07;;;10.70;99.90;;;;;;5073494;28;20105;-52
2022/10/27 04:54:05;;;;;;;39.38;9.25;;;10.70;99.90;;;;;;5072022;28;20110;-51
2022/10/27 04:56:30;;;;;;;39.05;9.65;;;10.70;99.90;;;;;;5073788;28;20306;-55
2022/10/27 04:58:56;;;;;;;21.02;9.52;;;10.60;99.90;;;;;;5072006;28;20031;-55
2022/10/27 05:01:22;;;;;;;17.55;8.65;;;10.50;99.90;;;;;;5073363;28;20051;-58
2022/10/27 05:03:48;;;;;;;25.40;9.63;;;10.50;99.90;;;;;;5073063;28;20078;-55
2022/10/27 05:06:14;;;;;;;11.25;8.40;;;10.50;99.90;;;;;;5073644;28;20496;-54
2022/10/27 05:08:40;;;;;;;15.85;9.27;;;10.50;99.90;;;;;;5073208;28;20115;-55
2022/10/27 05:11:05;;;;;;;11.40;8.18;;;10.40;99.90;;;;;;5073236;28;20031;-53
2022/10/27 05:13:31;;;;;;;11.50;8.88;;;10.60;99.90;;;;;;5072715;28;20051;-54
2022/10/27 05:16:01;;;;;;;16.23;8.88;;;10.40;99.90;;;;;;5073625;28;20029;-57
2022/10/27 05:18:27;;;;;;;11.63;7.85;;;10.40;99.90;;;;;;5073461;28;20021;-57
2022/10/27 05:20:53;;;;;;;13.55;7.43;;;10.40;99.90;;;;;;5073302;28;20032;-54
2022/10/27 05:23:18;;;;;;;12.00;6.63;;;10.40;99.90;;;;;;5073191;28;20510;-56
2022/10/27 05:25:44;;;;;;;16.88;7.78;;;10.30;99.90;;;;;;5071204;28;20546;-53
2022/10/27 05:28:10;;;;;;;19.52;7.15;;;10.30;99.90;;;;;;5072915;28;20499;-52
2022/10/27 05:30:36;;;;;;;15.25;7.05;;;10.40;99.90;;;;;;5072879;28;20439;-53
2022/10/27 05:33:03;;;;;;;16.50;7.25;;;10.40;99.90;;;;;;5070650;28;20025;-51
2022/10/27 05:35:28;;;;;;;7.53;5.72;;;10.40;99.90;;;;;;5072553;28;20066;-51
2022/10/27 05:37:54;;;;;;;11.15;6.57;;;10.40;99.90;;;;;;5072500;28;20139;-50
2022/10/27 05:40:20;;;;;;;14.52;7.18;;;10.40;99.90;;;;;;5072678;28;20544;-52
2022/10/27 05:42:50;;;;;;;13.35;7.70;;;10.40;99.90;;;;;;5072123;28;20419;-56
2022/10/27 05:45:16;;;;;;;19.73;8.80;;;10.40;99.90;;;;;;5072297;28;20035;-49
2022/10/27 05:47:41;;;;;;;18.85;7.65;;;10.50;99.90;;;;;;5071027;28;20020;-54
2022/10/27 05:50:07;;;;;;;13.90;7.22;;;10.50;99.90;;;;;;5072302;28;20031;-48
2022/10/27 05:52:33;;;;;;;15.40;7.05;;;10.50;99.90;;;;;;5070738;28;20546;-51
2022/10/27 05:54:58;;;;;;;12.05;6.47;;;10.50;99.90;;;;;;5072201;28;20027;-57
2022/10/27 05:57:24;;;;;;;10.93;7.35;;;10.50;99.90;;;;;;5072561;28;20033;-51
2022/10/27 05:59:49;;;;;;;15.55;7.57;;;10.50;99.90;;;;;;5072129;28;20673;-49
2022/10/27 06:02:15;;;;;;;12.20;6.97;;;10.50;99.90;;;;;;5071789;28;20023;-51
2022/10/27 06:04:40;;;;;;;11.75;6.35;;;10.50;99.90;;;;;;5072060;28;20472;-55
2022/10/27 06:07:06;;;;;;;10.70;5.70;;;10.40;99.90;;;;;;5071866;28;20024;-51
2022/10/27 06:09:31;;;;;;;11.80;5.90;;;10.40;99.90;;;;;;5071411;28;20027;-53
2022/10/27 06:11:57;;;;;;;11.77;7.15;;;10.40;99.90;;;;;;5071497;28;20042;-47
2022/10/27 06:14:22;;;;;;;13.40;6.65;;;10.40;99.90;;;;;;5071888;28;20415;-51
2022/10/27 06:16:48;;;;;;;11.93;6.18;;;10.40;99.90;;;;;;5071738;28;20021;-51
2022/10/27 06:19:13;;;;;;;14.20;7.38;;;10.40;99.90;;;;;;5071724;28;20028;-53
2022/10/27 06:21:39;;;;;;;11.27;5.78;;;10.40;99.90;;;;;;5070511;28;20333;-50
2022/10/27 06:24:05;;;;;;;9.73;6.15;;;10.50;99.90;;;;;;5070105;28;20032;-50
2022/10/27 06:26:30;;;;;;;10.98;6.63;;;10.50;99.90;;;;;;5071681;28;20024;-53
2022/10/27 06:28:56;;;;;;;16.25;6.85;;;10.50;99.90;;;;;;5070388;28;20031;-52
2022/10/27 06:31:21;;;;;;;15.32;5.82;;;10.60;99.90;;;;;;5071700;28;20029;-48
2022/10/27 06:33:47;;;;;;;15.05;6.30;;;10.70;99.90;;;;;;5070076;28;20060;-52
2022/10/27 06:36:13;;;;;;;10.75;5.90;;;10.70;99.90;;;;;;5071364;28;20028;-52
2022/10/27 06:38:38;;;;;;;11.00;5.70;;;10.70;99.90;;;;;;5070293;28;20028;-49
2022/10/27 06:41:04;;;;;;;12.15;6.40;;;10.80;99.90;;;;;;5071485;28;20369;-46
2022/10/27 06:43:29;;;;;;;11.18;6.28;;;10.80;99.90;;;;;;5070922;28;20107;-47
2022/10/27 06:45:55;;;;;;;13.88;5.60;;;10.80;99.90;;;;;;5071350;28;20090;-46
2022/10/27 06:48:20;;;;;;;11.77;5.50;;;10.80;99.90;;;;;;5071297;28;20033;-55
2022/10/27 06:50:46;;;;;;;11.07;5.85;;;10.90;99.90;;;;;;5071453;28;20476;-48
2022/10/27 06:53:12;;;;;;;5.50;4.88;;;11.00;99.90;;;;;;5071100;28;20078;-50
2022/10/27 06:55:37;;;;;;;10.23;6.50;;;11.00;99.90;;;;;;5071268;28;20025;-48
2022/10/27 06:58:03;;;;;;;7.57;5.90;;;11.10;99.90;;;;;;5071305;28;20029;-47
2022/10/27 07:00:29;;;;;;;7.57;5.78;;;11.10;99.90;;;;;;5071411;28;20031;-51
2022/10/27 07:02:55;;;;;;;9.68;5.63;;;11.20;99.90;;;;;;5070907;28;20472;-48
2022/10/27 07:05:20;;;;;;;12.82;5.57;;;11.20;99.90;;;;;;5071115;28;20024;-48
2022/10/27 07:07:51;;;;;;;12.30;5.47;;;11.20;99.90;;;;;;5071178;28;20075;-51
2022/10/27 07:10:17;;;;;;;10.38;5.97;;;11.00;99.90;;;;;;5071169;28;20031;-50
2022/10/27 07:12:54;;;;;;;7.45;4.43;;;11.20;99.90;;;;;;5070995;28;20028;-46
2022/10/27 07:15:19;;;;;;;15.15;5.72;;;11.20;99.90;;;;;;5071440;28;20103;-48
2022/10/27 07:17:45;;;;;;;8.70;4.97;;;11.20;99.90;;;;;;5071227;28;20556;-46
2022/10/27 07:20:11;;;;;;;13.70;5.65;;;11.20;99.90;;;;;;5070125;28;20024;-49
2022/10/27 07:22:39;;;;;;;7.78;5.45;;;11.20;99.90;;;;;;5071005;28;20027;-53
2022/10/27 07:25:05;;;;;;;7.07;5.65;;;11.20;99.90;;;;;;5070877;28;20070;-52
2022/10/27 07:27:30;;;;;;;11.98;5.60;;;11.30;99.90;;;;;;5071050;28;20028;-48
2022/10/27 07:29:56;;;;;;;9.35;5.18;;;11.30;99.90;;;;;;5071107;28;20024;-46
2022/10/27 07:32:22;;;;;;;6.57;5.45;;;11.30;99.90;;;;;;5071072;28;20027;-49
2022/10/27 07:34:47;;;;;;;8.60;6.15;;;11.40;99.90;;;;;;5071096;28;20033;-48
2022/10/27 07:37:13;;;;;;;7.55;5.20;;;11.40;99.90;;;;;;5071144;28;20488;-51
2022/10/27 07:39:38;;;;;;;6.60;5.28;;;11.50;99.90;;;;;;5070819;28;20456;-47
2022/10/27 07:42:04;;;;;;;9.23;5.63;;;11.60;99.90;;;;;;5070743;28;20036;-51
2022/10/27 07:44:29;;;;;;;10.68;5.68;;;11.60;99.90;;;;;;5070623;28;20021;-51
2022/10/27 07:46:55;;;;;;;7.10;4.80;;;11.70;99.90;;;;;;5070712;28;20491;-46
2022/10/27 07:49:20;;;;;;;9.23;5.03;;;11.70;99.90;;;;;;5071084;28;20031;-50
2022/10/27 07:51:46;;;;;;;11.02;5.30;;;11.80;99.90;;;;;;5070535;28;20422;-55
2022/10/27 07:54:11;;;;;;;10.20;4.80;;;11.80;99.90;;;;;;5070553;28;20029;-49
2022/10/27 07:56:37;;;;;;;7.15;4.18;;;11.90;99.90;;;;;;5074496;28;20070;-48
2022/10/27 07:59:03;;;;;;;7.68;4.47;;;11.90;99.90;;;;;;5073067;28;20396;-50
2022/10/27 08:01:28;;;;;;;7.63;4.97;;;11.90;99.90;;;;;;5074532;28;20020;-49
2022/10/27 08:03:54;;;;;;;10.75;5.70;;;12.00;99.90;;;;;;5074055;28;20029;-46
2022/10/27 08:06:20;;;;;;;13.65;5.20;;;12.00;99.90;;;;;;5074281;28;20476;-48
2022/10/27 08:08:45;;;;;;;6.47;5.32;;;12.10;99.90;;;;;;5073961;28;20059;-50
2022/10/27 08:11:11;;;;;;;8.05;5.07;;;12.20;99.90;;;;;;5074361;28;20025;-54
2022/10/27 08:13:36;;;;;;;7.97;5.22;;;12.30;99.90;;;;;;5073874;28;20027;-52
2022/10/27 08:16:02;;;;;;;6.70;5.30;;;12.40;99.90;;;;;;5074401;28;20028;-49
2022/10/27 08:18:27;;;;;;;9.50;4.78;;;12.50;99.90;;;;;;5074145;28;20540;-50
2022/10/27 08:20:53;;;;;;;8.05;4.47;;;12.50;99.90;;;;;;5074090;28;20032;-45
2022/10/27 08:23:22;;;;;;;6.88;5.22;;;12.50;99.90;;;;;;5072467;28;20028;-46
2022/10/27 08:25:48;;;;;;;7.65;4.95;;;12.50;99.90;;;;;;5073755;28;20166;-48
2022/10/27 08:28:14;;;;;;;7.90;5.10;;;12.50;99.90;;;;;;5073690;28;20123;-50
2022/10/27 08:30:40;;;;;;;10.60;4.88;;;12.60;99.90;;;;;;5072659;28;20021;-53
2022/10/27 08:33:07;;;;;;;5.80;5.18;;;12.60;99.90;;;;;;5072816;28;20027;-50
2022/10/27 08:35:33;;;;;;;11.52;4.70;;;12.60;99.90;;;;;;5073638;28;20035;-50
2022/10/27 08:38:09;;;;;;;6.15;4.53;;;12.70;99.90;;;;;;5073750;28;20438;-47
2022/10/27 08:40:56;;;;;;;14.70;4.70;;;12.70;99.90;;;;;;5073661;28;20359;-48
2022/10/27 08:43:53;;;;;;;8.02;4.60;;;12.80;99.90;;;;;;5073571;28;20035;-50
2022/10/27 08:46:37;;;;;;;11.43;4.40;;;13.00;99.90;;;;;;5063150;28;20120;-48
2022/10/27 08:49:08;;;;;;;11.75;4.47;;;13.00;99.90;;;;;;5052154;28;20068;-48
2022/10/27 08:51:34;;;;;;;5.82;4.38;;;13.10;99.90;;;;;;5053415;28;20028;-48
2022/10/27 08:54:02;;;;;;;8.23;4.72;;;13.30;99.90;;;;;;5051849;28;20025;-47
2022/10/27 08:56:37;;;;;;;4.65;3.42;;;13.60;99.90;;;;;;5051993;28;20021;-46
2022/10/27 08:59:03;;;;;;;;;;;14.80;99.90;;;;;;5053925;28;20508;-49
2022/10/27 09:01:49;;;;;;;6.85;3.45;;;16.10;99.90;;;;;;5053532;28;19905;-46
2022/10/27 09:04:35;;;;;;;;;;;17.50;99.90;;;;;;5062541;28;20048;-47
2022/10/27 09:07:09;;;;;;;9.93;3.50;;;18.50;99.90;;;;;;5072140;28;20318;-48
2022/10/27 09:09:52;;;;;;;3.50;2.95;;;19.40;99.90;;;;;;5053808;28;20082;-47
2022/10/27 09:12:36;;;;;;;5.18;2.60;;;19.80;99.90;;;;;;5052885;28;20108;-51
2022/10/27 09:15:12;;;;;;;8.23;2.53;;;20.40;99.90;;;;;;5053445;28;20025;-53
2022/10/27 09:17:47;;;;;;;8.05;3.00;;;20.90;99.90;;;;;;5052746;28;20025;-52
2022/10/27 09:20:19;;;;;;;;;;;21.60;99.90;;;;;;5053330;28;20489;-49
2022/10/27 09:22:47;;;;;;;3.00;1.98;;;22.20;99.90;;;;;;5052447;28;19905;-53
2022/10/27 09:25:20;;;;;;;3.63;2.05;;;22.80;99.90;;;;;;5062925;28;20102;-55
2022/10/27 09:27:50;;;;;;;2.90;2.10;;;23.40;99.90;;;;;;5072644;28;20020;-49
2022/10/27 09:30:16;;;;;;;7.10;2.53;;;23.80;99.90;;;;;;5071021;28;20047;-55
2022/10/27 09:32:47;;;;;;;7.22;2.92;;;24.10;99.90;;;;;;5070552;28;20021;-53
2022/10/27 09:35:25;;;;;;;3.83;2.35;;;24.30;99.90;;;;;;5074013;22;20576;-46
2022/10/27 09:37:52;;;;;;;9.25;2.10;;;24.50;99.60;;;;;;5050940;28;20024;-53
2022/10/27 09:40:22;;;;;;;8.43;5.47;;;24.60;99.80;;;;;;5052254;28;20036;-52
2022/10/27 09:42:52;;;;;;;5.32;3.10;;;25.10;99.40;;;;;;5054485;28;20096;-51
2022/10/27 09:45:23;;;;;;;5.70;1.85;;;25.30;98.70;;;;;;5067567;28;20043;-52
2022/10/27 09:47:59;;;;;;;7.32;2.33;;;25.10;98.70;;;;;;5077320;28;20028;-47
2022/10/27 09:50:51;;;;;;;5.10;2.95;;;24.90;98.80;;;;;;5074176;28;20396;-49
2022/10/27 09:53:40;;;;;;;7.90;2.53;;;24.80;99.50;;;;;;5071989;28;20392;-47
2022/10/27 09:56:10;;;;;;;6.45;2.35;;;25.20;98.90;;;;;;5073286;28;20024;-50
2022/10/27 09:58:46;;;;;;;9.05;2.75;;;25.00;98.60;;;;;;5072072;28;20496;-45
2022/10/27 10:01:13;;;;;;;7.55;2.58;;;25.10;98.60;;;;;;5073799;28;20488;-47
2022/10/27 10:03:39;;;;;;;6.78;2.58;;;24.80;98.70;;;;;;5072800;28;20073;-48
2022/10/27 10:06:22;;;;;;;6.07;2.67;;;24.50;99.60;;;;;;5073860;28;20020;-48
2022/10/27 10:08:47;;;;;;;4.88;2.65;;;24.40;99.90;;;;;;5065204;28;20025;-43
2022/10/27 10:11:23;;;;;;;5.18;3.50;;;23.60;99.90;;;;;;5051867;28;20027;-50
2022/10/27 10:14:02;;;;;;;4.22;2.67;;;23.30;99.90;;;;;;5051110;28;20100;-50
2022/10/27 10:16:28;;;;;;;7.65;3.33;;;23.00;99.90;;;;;;5051662;28;20024;-47
2022/10/27 10:19:20;;;;;;;9.20;3.05;;;22.90;99.90;;;;;;5052531;28;20033;-47
2022/10/27 10:21:53;;;;;;;6.18;3.30;;;22.60;99.90;;;;;;5052095;28;20029;-46
2022/10/27 10:24:35;;;;;;;8.25;3.35;;;22.20;99.90;;;;;;5052417;28;20039;-45
2022/10/27 10:27:04;;;;;;;5.43;2.95;;;21.90;99.90;;;;;;5052128;28;20094;-49
2022/10/27 10:29:48;;;;;;;4.13;3.15;;;21.60;99.90;;;;;;5051532;28;20025;-50
2022/10/27 10:32:35;;;;;;;11.60;4.10;;;21.40;99.90;;;;;;5050981;28;20017;-53
2022/10/27 10:35:02;;;;;;;6.85;4.68;;;21.30;99.90;;;;;;5054208;28;20090;-48
2022/10/27 10:37:45;;;;;;;24.92;14.63;;;21.20;99.90;;;;;;5057999;28;20029;-52
2022/10/27 10:40:13;;;;;;;8.60;4.68;;;21.00;99.90;;;;;;5054409;28;20033;-47
2022/10/27 10:42:58;;;;;;;6.22;4.07;;;20.90;99.90;;;;;;5052776;28;20490;-47
2022/10/27 10:45:26;;;;;;;8.43;4.87;;;20.80;99.90;;;;;;5052440;28;20378;-46
2022/10/27 10:47:58;;;;;;;9.82;4.18;;;20.60;99.90;;;;;;5056372;28;20556;-46
2022/10/27 10:50:25;;;;;;;8.30;4.13;;;20.30;99.90;;;;;;5071854;28;20681;-50
2022/10/27 10:52:53;;;;;;;6.45;4.43;;;20.00;99.90;;;;;;5073763;28;20032;-46
2022/10/27 10:55:27;;;;;;;8.95;4.90;;;19.60;99.90;;;;;;5072733;28;20416;-49
2022/10/27 10:57:54;;;;;;;6.80;4.25;;;19.30;99.90;;;;;;5072301;28;20025;-47
2022/10/27 11:00:21;;;;;;;9.07;5.43;;;19.10;99.90;;;;;;5072049;28;20075;-47
2022/10/27 11:03:04;;;;;;;8.98;4.72;;;19.00;99.90;;;;;;5071432;28;20021;-47
2022/10/27 11:05:33;;;;;;;7.70;5.00;;;18.80;99.90;;;;;;5071419;28;20031;-51
2022/10/27 11:07:59;;;;;;;8.30;5.50;;;18.70;99.90;;;;;;5071841;28;20025;-43
2022/10/27 11:10:29;;;;;;;9.23;5.78;;;18.50;99.90;;;;;;5070266;28;20488;-47
2022/10/27 11:13:22;;;;;;;7.60;6.13;;;18.30;99.90;;;;;;5071563;28;20013;-47
2022/10/27 11:15:53;;;;;;;6.93;5.85;;;18.20;99.90;;;;;;5071822;28;20016;-49
2022/10/27 11:18:29;;;;;;;7.57;5.75;;;18.10;99.90;;;;;;5071469;28;20474;-50
2022/10/27 11:21:06;;;;;;;11.23;6.60;;;18.10;99.90;;;;;;5069741;28;20036;-48
2022/10/27 11:23:48;;;;;;;12.73;6.85;;;18.00;99.90;;;;;;5070826;28;20020;-50
2022/10/27 11:26:23;;;;;;;47.47;30.80;;;17.90;99.90;;;;;;5069884;28;20026;-49
2022/10/27 11:29:20;;;;;;;31.77;22.55;;;17.90;99.90;;;;;;5069087;28;20484;-49
2022/10/27 11:32:14;;;;;;;25.25;16.38;;;17.80;99.90;;;;;;5073766;28;20025;-49
2022/10/27 11:34:52;;;;;;;15.75;7.57;;;17.70;99.90;;;;;;5073253;28;20396;-51
2022/10/27 11:37:29;;;;;;;17.85;9.18;;;17.70;99.90;;;;;;5073263;28;20028;-50
2022/10/27 11:40:01;;;;;;;14.95;9.18;;;17.60;99.90;;;;;;5073617;28;20060;-48
2022/10/27 11:42:35;;;;;;;18.75;9.38;;;17.50;99.90;;;;;;5073783;28;20032;-50
2022/10/27 11:45:10;;;;;;;19.87;9.90;;;17.50;99.90;;;;;;5070778;28;20066;-50
2022/10/27 11:47:35;;;;;;;17.00;11.03;;;17.40;99.90;;;;;;5055786;28;20078;-46
2022/10/27 11:50:17;;;;;;;20.05;10.70;;;17.30;99.90;;;;;;5076085;28;20484;-47
2022/10/27 11:52:48;;;;;;;16.23;9.00;;;17.20;99.90;;;;;;5074256;28;20032;-47
2022/10/27 11:55:17;;;;;;;18.20;11.57;;;17.20;99.90;;;;;;5075438;28;20518;-47
2022/10/27 11:57:47;;;;;;;15.93;9.75;;;17.20;99.90;;;;;;5074809;28;20021;-46
2022/10/27 12:00:25;;;;;;;22.88;11.63;;;17.10;99.90;;;;;;5074433;28;20104;-47
2022/10/27 12:03:28;;;;;;;16.33;10.50;;;17.00;99.90;;;;;;5074272;28;20024;-47
2022/10/27 12:06:02;;;;;;;14.18;11.02;;;17.00;99.90;;;;;;5062140;28;20052;-49
2022/10/27 12:08:58;;;;;;;17.48;11.60;;;17.10;99.90;;;;;;5054068;28;20017;-50
2022/10/27 12:11:45;;;;;;;20.75;12.75;;;17.10;99.90;;;;;;5054287;28;20159;-47
2022/10/27 12:14:48;;;;;;;16.42;12.23;;;17.00;99.90;;;;;;5054128;28;20515;-51
2022/10/27 12:17:25;;;;;;;21.10;12.48;;;17.00;99.90;;;;;;5054507;28;20028;-48
2022/10/27 12:19:55;;;;;;;22.23;12.80;;;17.00;99.90;;;;;;5071318;28;20032;-50
2022/10/27 12:22:34;;;;;;;22.30;13.23;;;17.10;99.90;;;;;;5073942;28;20040;-49
2022/10/27 12:25:27;;;;;;;19.60;12.98;;;17.20;99.90;;;;;;5074622;28;20103;-51
2022/10/27 12:27:57;;;;;;;22.63;12.93;;;17.20;99.90;;;;;;5074372;28;20028;-53
2022/10/27 12:30:24;;;;;;;18.90;12.57;;;17.20;99.90;;;;;;5073978;28;20021;-51
2022/10/27 12:33:21;;;;;;;18.35;11.80;;;17.20;99.90;;;;;;5073844;28;20020;-58
2022/10/27 12:36:20;;;;;;;25.23;13.25;;;17.30;99.90;;;;;;5074599;28;20020;-52
2022/10/27 12:38:55;;;;;;;20.40;13.70;;;17.30;99.90;;;;;;5068530;28;20041;-50
2022/10/27 12:41:29;;;;;;;18.67;13.63;;;17.40;99.90;;;;;;5074188;28;20068;-49
2022/10/27 12:43:59;;;;;;;19.77;12.48;;;17.40;99.90;;;;;;5073921;28;20028;-49
2022/10/27 12:46:42;;;;;;;18.95;13.65;;;17.30;99.90;;;;;;5073955;28;20099;-51
2022/10/27 12:49:22;;;;;;;15.90;12.18;;;17.40;99.90;;;;;;5074120;28;20166;-48
2022/10/27 12:52:00;;;;;;;13.77;11.15;;;17.40;99.90;;;;;;5074155;28;20020;-45
2022/10/27 12:54:41;;;;;;;102.63;74.95;;;17.50;99.90;;;;;;5072845;28;20070;-48
2022/10/27 12:57:22;;;;;;;84.25;54.95;;;17.40;99.90;;;;;;5074308;28;20127;-48